Time;durP1;ratioP1;P1;durP2;ratioP2;P2;SDS_P1;SDS_P2;PMS_P1;PMS_P2;Temp;Humidity;BMP_temperature;BMP_pressure;BME280_temperature;BME280_humidity;BME280_pressure;Samples;Min_cycle;Max_cycle;Signal;HPM_P1;HPM_P2
2022/03/07 00:01:25;;;;;;;7.38;2.65;;;4.90;97.30;;;;;;4942253;29;20150;-69
2022/03/07 00:03:53;;;;;;;;;;;4.90;97.40;;;;;;4953820;28;20054;-69
2022/03/07 00:06:20;;;;;;;4.75;2.20;;;4.90;98.00;;;;;;4954154;28;19922;-69
2022/03/07 00:08:48;;;;;;;7.38;1.98;;;4.90;97.70;;;;;;4971950;28;20053;-69
2022/03/07 00:11:16;;;;;;;4.95;2.10;;;4.90;97.70;;;;;;4966524;28;20047;-69
2022/03/07 00:13:44;;;;;;;6.45;2.00;;;5.00;97.80;;;;;;4953275;28;20506;-68
2022/03/07 00:16:11;;;;;;;8.35;1.90;;;5.00;98.00;;;;;;4953907;28;20058;-71
2022/03/07 00:18:38;;;;;;;11.32;2.95;;;5.00;98.40;;;;;;4984004;28;20098;-70
2022/03/07 00:21:06;;;;;;;8.85;2.55;;;4.90;98.70;;;;;;4952362;28;20039;-71
2022/03/07 00:23:33;;;;;;;6.78;2.42;;;4.90;98.90;;;;;;4952739;28;20424;-70
2022/03/07 00:26:06;;;;;;;7.30;2.42;;;4.90;99.20;;;;;;4938499;29;20534;-70
2022/03/07 00:28:34;;;;;;;7.53;2.20;;;4.90;99.60;;;;;;4953718;28;20079;-70
2022/03/07 00:31:05;;;;;;;10.23;2.90;;;4.90;99.60;;;;;;4968187;28;20051;-69
2022/03/07 00:33:34;;;;;;;5.97;2.30;;;5.00;99.70;;;;;;4966720;28;20047;-69
2022/03/07 00:36:01;;;;;;;7.82;2.20;;;5.00;99.60;;;;;;4951790;28;20051;-68
2022/03/07 00:38:32;;;;;;;9.50;2.42;;;5.00;99.90;;;;;;4958631;28;20061;-68
2022/03/07 00:40:59;;;;;;;7.40;2.63;;;5.00;99.70;;;;;;4960500;28;20390;-69
2022/03/07 00:43:26;;;;;;;6.97;2.40;;;5.00;99.70;;;;;;4954025;28;20570;-69
2022/03/07 00:45:53;;;;;;;5.57;2.13;;;5.10;99.80;;;;;;4941305;28;20058;-69
2022/03/07 00:48:20;;;;;;;11.77;2.35;;;5.10;99.90;;;;;;4938337;28;20217;-68
2022/03/07 00:50:48;;;;;;;8.13;3.63;;;5.10;99.80;;;;;;4969079;28;20570;-69
2022/03/07 00:53:22;;;;;;;8.13;2.50;;;5.10;99.30;;;;;;4954740;28;20055;-69
2022/03/07 00:55:52;;;;;;;8.45;2.33;;;5.10;99.10;;;;;;4935581;29;20051;-70
2022/03/07 00:58:19;;;;;;;8.32;2.10;;;5.10;99.20;;;;;;4953217;28;20125;-69
2022/03/07 01:00:46;;;;;;;11.88;1.90;;;5.10;98.70;;;;;;4956774;28;20059;-69
2022/03/07 01:03:14;;;;;;;8.30;2.85;;;5.10;97.60;;;;;;4971336;28;20050;-69
2022/03/07 01:05:43;;;;;;;6.28;3.97;;;5.10;97.10;;;;;;4969861;28;20510;-69
2022/03/07 01:08:10;;;;;;;9.02;2.10;;;5.10;96.80;;;;;;4957063;28;20503;-69
2022/03/07 01:10:37;;;;;;;9.73;2.03;;;5.20;96.50;;;;;;4956755;28;20074;-69
2022/03/07 01:13:05;;;;;;;8.80;2.63;;;5.20;96.40;;;;;;4957239;28;20130;-69
2022/03/07 01:15:32;;;;;;;5.57;2.20;;;5.20;95.70;;;;;;4960164;28;20082;-69
2022/03/07 01:18:00;;;;;;;6.50;1.90;;;5.30;95.20;;;;;;4971706;28;20046;-69
2022/03/07 01:20:27;;;;;;;10.27;2.85;;;5.30;95.10;;;;;;4959686;28;20047;-69
2022/03/07 01:22:54;;;;;;;10.63;2.03;;;5.30;95.10;;;;;;4956218;28;20055;-69
2022/03/07 01:25:24;;;;;;;8.88;2.72;;;5.30;94.80;;;;;;4961350;28;20138;-69
2022/03/07 01:27:51;;;;;;;16.13;3.53;;;5.30;95.00;;;;;;4988886;28;20055;-69
2022/03/07 01:30:20;;;;;;;8.55;2.20;;;5.30;94.60;;;;;;4965017;28;20510;-69
2022/03/07 01:32:48;;;;;;;6.32;2.05;;;5.30;94.80;;;;;;4962386;28;20055;-69
2022/03/07 01:35:15;;;;;;;6.43;2.10;;;5.40;94.70;;;;;;4948137;28;20065;-69
2022/03/07 01:37:42;;;;;;;10.93;2.25;;;5.30;94.90;;;;;;4975067;28;20082;-70
2022/03/07 01:40:09;;;;;;;7.95;1.95;;;5.40;95.00;;;;;;4974122;28;20046;-68
2022/03/07 01:42:37;;;;;;;7.47;2.05;;;5.40;95.00;;;;;;4976074;28;20499;-68
2022/03/07 01:45:08;;;;;;;10.40;3.72;;;5.40;94.80;;;;;;4962158;28;20090;-68
2022/03/07 01:47:38;;;;;;;9.20;2.60;;;5.40;95.10;;;;;;4950199;28;20129;-68
2022/03/07 01:50:06;;;;;;;9.35;2.33;;;5.30;95.30;;;;;;4955360;29;20158;-68
2022/03/07 01:52:34;;;;;;;9.40;2.63;;;5.30;95.70;;;;;;4956479;28;20518;-69
2022/03/07 01:55:01;;;;;;;10.23;2.55;;;5.30;95.90;;;;;;4957510;28;20073;-68
2022/03/07 01:57:30;;;;;;;6.40;2.72;;;5.30;96.10;;;;;;4956322;28;20500;-68
2022/03/07 01:59:57;;;;;;;14.27;2.35;;;5.30;96.40;;;;;;4960588;28;20083;-69
2022/03/07 02:02:24;;;;;;;8.48;3.05;;;5.30;96.40;;;;;;4955117;28;20093;-68
2022/03/07 02:04:52;;;;;;;11.90;2.30;;;5.30;96.70;;;;;;4929763;29;20130;-68
2022/03/07 02:07:19;;;;;;;9.57;2.30;;;5.30;96.90;;;;;;4959729;28;20069;-68
2022/03/07 02:09:46;;;;;;;7.78;2.40;;;5.30;97.20;;;;;;4965462;28;20116;-68
2022/03/07 02:12:13;;;;;;;7.32;2.05;;;5.20;97.50;;;;;;4966771;28;20100;-70
2022/03/07 02:14:40;;;;;;;8.20;2.25;;;5.30;97.50;;;;;;4973257;28;20507;-68
2022/03/07 02:17:07;;;;;;;10.82;2.42;;;5.20;97.80;;;;;;4962072;28;20135;-68
2022/03/07 02:19:36;;;;;;;9.38;3.28;;;5.20;98.50;;;;;;4969719;28;20123;-68
2022/03/07 02:22:06;;;;;;;5.68;2.08;;;5.10;99.10;;;;;;4986542;28;20054;-69
2022/03/07 02:24:36;;;;;;;7.05;2.08;;;5.10;99.60;;;;;;4966730;28;20105;-69
2022/03/07 02:27:04;;;;;;;10.95;2.30;;;5.00;99.90;;;;;;4957048;28;20411;-68
2022/03/07 02:29:32;;;;;;;9.27;2.20;;;5.00;99.90;;;;;;4964751;28;20061;-68
2022/03/07 02:31:59;;;;;;;10.27;3.30;;;5.00;99.90;;;;;;4967967;28;20055;-68
2022/03/07 02:34:26;;;;;;;10.00;3.70;;;5.00;99.90;;;;;;4971702;28;20051;-68
2022/03/07 02:36:53;;;;;;;6.35;2.80;;;4.90;99.90;;;;;;4972255;28;20078;-68
2022/03/07 02:39:20;;;;;;;8.82;2.22;;;4.80;99.90;;;;;;4948706;29;20054;-68
2022/03/07 02:41:47;;;;;;;6.90;2.15;;;4.80;99.90;;;;;;4986918;28;20052;-68
2022/03/07 02:44:14;;;;;;;16.27;3.53;;;4.70;99.90;;;;;;4945273;28;20126;-68
2022/03/07 02:46:43;;;;;;;7.28;2.92;;;4.60;99.90;;;;;;4930791;29;20051;-68
2022/03/07 02:49:10;;;;;;;10.20;2.22;;;4.60;99.90;;;;;;4961161;28;20125;-68
2022/03/07 02:51:37;;;;;;;14.20;2.33;;;4.60;99.90;;;;;;4952472;28;20046;-68
2022/03/07 02:54:04;;;;;;;8.75;2.30;;;4.70;99.90;;;;;;4955653;28;20053;-68
2022/03/07 02:56:31;;;;;;;8.98;2.00;;;4.70;99.90;;;;;;4970454;28;20058;-68
2022/03/07 02:58:58;;;;;;;12.05;3.63;;;4.60;99.90;;;;;;4955880;28;20500;-68
2022/03/07 03:01:25;;;;;;;8.25;2.53;;;4.50;99.90;;;;;;4939783;29;20086;-68
2022/03/07 03:03:52;;;;;;;6.57;2.10;;;4.50;99.90;;;;;;4954495;29;20047;-68
2022/03/07 03:06:19;;;;;;;10.23;2.17;;;4.60;99.90;;;;;;4955365;28;20102;-68
2022/03/07 03:08:48;;;;;;;6.40;2.23;;;4.60;99.90;;;;;;4956211;28;20082;-68
2022/03/07 03:11:15;;;;;;;8.68;3.05;;;4.60;99.90;;;;;;4969637;28;20320;-68
2022/03/07 03:13:42;;;;;;;15.77;3.90;;;4.60;99.90;;;;;;4953022;28;20075;-69
2022/03/07 03:16:10;;;;;;;9.30;2.20;;;4.50;99.90;;;;;;4948933;28;20558;-68
2022/03/07 03:18:37;;;;;;;9.80;2.50;;;4.50;99.90;;;;;;4968755;28;20550;-68
2022/03/07 03:21:04;;;;;;;11.27;2.30;;;4.50;99.90;;;;;;4953845;28;20086;-68
2022/03/07 03:23:31;;;;;;;16.63;3.00;;;4.50;99.90;;;;;;4969089;28;20055;-68
2022/03/07 03:25:59;;;;;;;8.75;2.13;;;4.50;99.90;;;;;;4965095;28;20058;-68
2022/03/07 03:28:26;;;;;;;11.77;2.95;;;4.50;99.90;;;;;;4965899;28;20051;-68
2022/03/07 03:30:55;;;;;;;6.95;2.70;;;4.50;99.90;;;;;;4963963;28;20051;-68
2022/03/07 03:33:22;;;;;;;9.77;2.88;;;4.50;99.90;;;;;;4967010;28;20055;-68
2022/03/07 03:35:49;;;;;;;4.90;2.58;;;4.50;99.90;;;;;;4938768;29;20058;-68
2022/03/07 03:38:16;;;;;;;8.75;2.30;;;4.50;99.90;;;;;;4953757;28;20126;-68
2022/03/07 03:40:43;;;;;;;11.68;2.97;;;4.50;99.90;;;;;;4963388;28;20061;-68
2022/03/07 03:43:10;;;;;;;6.30;2.25;;;4.50;99.90;;;;;;4982093;28;20130;-68
2022/03/07 03:45:37;;;;;;;7.07;2.58;;;4.50;99.90;;;;;;4961938;28;20047;-68
2022/03/07 03:48:04;;;;;;;8.82;2.45;;;4.60;99.90;;;;;;4969420;28;20053;-68
2022/03/07 03:50:31;;;;;;;12.38;2.30;;;4.60;99.90;;;;;;4968626;28;20051;-68
2022/03/07 03:53:01;;;;;;;;;;;4.60;99.90;;;;;;4951972;28;20082;-69
2022/03/07 03:55:28;;;;;;;9.63;2.83;;;4.60;99.90;;;;;;4951479;28;20009;-68
2022/03/07 03:57:55;;;;;;;5.20;2.63;;;4.60;99.90;;;;;;4970438;28;20142;-68
2022/03/07 04:00:23;;;;;;;8.15;3.05;;;4.60;99.90;;;;;;4958117;28;20141;-68
2022/03/07 04:02:51;;;;;;;12.30;2.55;;;4.60;99.90;;;;;;4953426;28;21812;-68
2022/03/07 04:05:18;;;;;;;7.30;2.58;;;4.60;99.90;;;;;;4954160;28;20553;-68
2022/03/07 04:07:45;;;;;;;9.13;2.40;;;4.60;99.90;;;;;;4968077;28;20109;-68
2022/03/07 04:10:15;;;;;;;15.88;3.80;;;4.70;99.90;;;;;;4961099;28;20077;-69
2022/03/07 04:12:42;;;;;;;11.75;4.18;;;4.70;99.90;;;;;;4959647;28;20136;-68
2022/03/07 04:15:13;;;;;;;7.43;3.08;;;4.70;99.90;;;;;;4953604;28;20047;-68
2022/03/07 04:17:41;;;;;;;9.48;1.83;;;4.70;99.90;;;;;;4956578;28;20051;-68
2022/03/07 04:20:08;;;;;;;9.75;2.78;;;4.70;99.90;;;;;;4969471;28;20058;-69
2022/03/07 04:22:36;;;;;;;10.32;4.70;;;4.70;99.90;;;;;;4969546;28;20057;-68
2022/03/07 04:25:05;;;;;;;10.68;3.70;;;4.70;99.90;;;;;;4960504;28;20051;-69
2022/03/07 04:27:32;;;;;;;9.10;2.60;;;4.80;99.90;;;;;;4967047;28;20107;-68
2022/03/07 04:29:59;;;;;;;8.57;2.70;;;4.70;99.90;;;;;;4960841;28;20058;-68
2022/03/07 04:32:26;;;;;;;12.43;3.42;;;4.80;99.90;;;;;;4952934;28;20513;-69
2022/03/07 04:34:56;;;;;;;8.25;3.40;;;4.70;99.90;;;;;;4959071;28;20105;-68
2022/03/07 04:37:23;;;;;;;8.65;2.72;;;4.70;99.90;;;;;;4936668;29;20051;-68
2022/03/07 04:39:50;;;;;;;7.55;2.63;;;4.70;99.90;;;;;;4932600;29;20059;-68
2022/03/07 04:42:17;;;;;;;12.00;3.85;;;4.70;99.90;;;;;;4965422;28;20127;-68
2022/03/07 04:44:44;;;;;;;13.80;3.20;;;4.70;99.90;;;;;;4959774;28;20059;-68
2022/03/07 04:47:11;;;;;;;10.05;3.55;;;4.70;99.90;;;;;;4953996;28;20048;-68
2022/03/07 04:49:38;;;;;;;11.88;2.72;;;4.70;99.90;;;;;;4966230;28;20051;-68
2022/03/07 04:52:05;;;;;;;7.53;2.58;;;4.70;99.90;;;;;;4958763;28;20039;-68
2022/03/07 04:54:33;;;;;;;10.02;3.63;;;4.70;99.90;;;;;;4966009;28;20221;-68
2022/03/07 04:57:01;;;;;;;13.40;2.95;;;4.70;99.90;;;;;;4950853;28;20051;-68
2022/03/07 04:59:28;;;;;;;10.35;2.95;;;4.60;99.90;;;;;;4958240;28;20094;-69
2022/03/07 05:01:54;;;;;;;17.50;3.88;;;4.60;99.90;;;;;;4961411;28;20061;-68
2022/03/07 05:04:22;;;;;;;11.77;2.80;;;4.60;99.90;;;;;;4941605;28;20043;-69
2022/03/07 05:06:55;;;;;;;8.55;2.53;;;4.60;99.90;;;;;;4940360;28;20399;-68
2022/03/07 05:09:22;;;;;;;8.60;3.83;;;4.60;99.90;;;;;;4963008;28;20074;-68
2022/03/07 05:11:49;;;;;;;12.07;4.47;;;4.60;99.90;;;;;;4969738;28;20216;-68
2022/03/07 05:14:18;;;;;;;10.45;4.05;;;4.60;99.90;;;;;;4943746;28;20127;-68
2022/03/07 05:16:45;;;;;;;10.88;4.22;;;4.60;99.90;;;;;;4960727;28;20054;-70
2022/03/07 05:19:12;;;;;;;7.97;3.10;;;4.60;99.90;;;;;;4952523;28;20079;-68
2022/03/07 05:21:39;;;;;;;13.50;3.45;;;4.60;99.90;;;;;;4983572;28;20114;-73
2022/03/07 05:24:06;;;;;;;10.07;3.22;;;4.60;99.90;;;;;;4953369;28;20511;-69
2022/03/07 05:26:33;;;;;;;11.70;3.22;;;4.60;99.90;;;;;;4940093;28;20130;-68
2022/03/07 05:29:00;;;;;;;10.85;2.78;;;4.60;99.90;;;;;;4945388;29;20134;-68
2022/03/07 05:31:27;;;;;;;11.30;2.97;;;4.60;99.90;;;;;;4957680;28;20089;-68
2022/03/07 05:33:56;;;;;;;16.25;3.95;;;4.60;99.90;;;;;;4955573;28;20047;-69
2022/03/07 05:36:23;;;;;;;12.02;3.45;;;4.60;99.90;;;;;;4970445;28;20047;-68
2022/03/07 05:38:50;;;;;;;13.02;2.88;;;4.60;99.90;;;;;;4970233;28;20487;-68
2022/03/07 05:41:17;;;;;;;7.50;2.88;;;4.60;99.90;;;;;;4956614;28;20388;-68
2022/03/07 05:43:44;;;;;;;9.13;3.00;;;4.60;99.90;;;;;;4967098;28;20563;-68
2022/03/07 05:46:13;;;;;;;9.55;2.95;;;4.60;99.90;;;;;;4966931;28;20138;-68
2022/03/07 05:48:40;;;;;;;11.38;2.60;;;4.60;99.90;;;;;;4960545;28;20418;-68
2022/03/07 05:51:07;;;;;;;9.60;2.72;;;4.60;99.90;;;;;;4972396;28;20134;-68
2022/03/07 05:53:34;;;;;;;10.82;3.10;;;4.60;99.90;;;;;;4963176;28;20042;-68
2022/03/07 05:56:01;;;;;;;11.30;3.17;;;4.60;99.90;;;;;;4955556;28;20055;-69
2022/03/07 05:58:28;;;;;;;10.80;3.60;;;4.60;99.90;;;;;;4971083;28;20078;-69
2022/03/07 06:00:55;;;;;;;12.85;3.50;;;4.50;99.90;;;;;;4973610;28;20055;-69
2022/03/07 06:03:22;;;;;;;10.25;2.75;;;4.60;99.90;;;;;;4948015;28;20063;-69
2022/03/07 06:05:50;;;;;;;12.65;4.00;;;4.50;99.90;;;;;;4954821;28;21917;-69
2022/03/07 06:08:17;;;;;;;11.38;4.28;;;4.50;99.90;;;;;;4969626;28;20526;-69
2022/03/07 06:10:44;;;;;;;18.30;2.95;;;4.50;99.90;;;;;;4949918;28;20444;-68
2022/03/07 06:13:12;;;;;;;9.40;2.92;;;4.50;99.90;;;;;;4959102;28;20419;-68
2022/03/07 06:15:43;;;;;;;15.45;3.70;;;4.50;99.90;;;;;;4961466;28;20057;-67
2022/03/07 06:18:11;;;;;;;9.13;3.25;;;4.60;99.90;;;;;;4963291;28;20155;-68
2022/03/07 06:20:38;;;;;;;10.80;3.70;;;4.50;99.90;;;;;;4985485;28;20039;-67
2022/03/07 06:23:05;;;;;;;11.38;4.05;;;4.50;99.90;;;;;;4938418;29;20143;-69
2022/03/07 06:25:36;;;;;;;16.02;3.70;;;4.50;99.90;;;;;;4968917;28;20047;-68
2022/03/07 06:28:04;;;;;;;10.02;2.95;;;4.50;99.90;;;;;;4954071;29;20054;-70
2022/03/07 06:30:31;;;;;;;6.70;3.40;;;4.50;99.90;;;;;;4972528;28;20046;-67
2022/03/07 06:32:58;;;;;;;14.48;5.28;;;4.60;99.90;;;;;;4957734;28;20057;-59
2022/03/07 06:35:25;;;;;;;19.95;5.22;;;4.60;99.90;;;;;;4967217;28;20059;-68
2022/03/07 06:37:52;;;;;;;14.48;4.97;;;4.70;99.90;;;;;;4957005;28;20042;-68
2022/03/07 06:40:21;;;;;;;9.30;2.72;;;4.70;99.90;;;;;;4971108;28;20062;-68
2022/03/07 06:42:48;;;;;;;7.03;3.78;;;4.70;99.90;;;;;;4933956;28;20551;-68
2022/03/07 06:45:16;;;;;;;10.65;3.38;;;4.70;99.90;;;;;;4964935;28;20057;-68
2022/03/07 06:47:44;;;;;;;19.30;4.00;;;4.70;99.90;;;;;;4955945;28;20042;-67
2022/03/07 06:50:12;;;;;;;73.07;37.70;;;4.70;99.90;;;;;;4940910;28;20121;-67
2022/03/07 06:52:39;;;;;;;16.08;6.43;;;4.70;99.90;;;;;;4948251;28;20048;-68
2022/03/07 06:55:06;;;;;;;8.77;3.67;;;4.70;99.90;;;;;;4951347;28;20065;-67
2022/03/07 06:57:34;;;;;;;9.88;3.22;;;4.70;99.90;;;;;;4992061;28;20057;-71
2022/03/07 07:00:01;;;;;;;13.27;4.53;;;4.70;99.90;;;;;;4964017;28;20050;-70
2022/03/07 07:02:28;;;;;;;8.70;2.88;;;4.80;99.90;;;;;;4963273;28;20503;-66
2022/03/07 07:04:55;;;;;;;10.35;3.63;;;4.80;99.90;;;;;;4940130;28;20162;-70
2022/03/07 07:07:22;;;;;;;9.73;3.97;;;4.80;99.90;;;;;;4959073;28;20125;-68
2022/03/07 07:09:49;;;;;;;9.95;3.13;;;4.80;99.90;;;;;;4961281;28;20455;-69
2022/03/07 07:12:16;;;;;;;10.95;3.50;;;4.80;99.90;;;;;;4958106;28;20082;-70
2022/03/07 07:14:45;;;;;;;8.23;3.05;;;4.80;99.90;;;;;;4952510;28;20138;-70
2022/03/07 07:17:12;;;;;;;38.22;23.05;;;4.90;99.90;;;;;;4966281;28;20055;-69
2022/03/07 07:19:39;;;;;;;17.02;6.72;;;4.90;99.90;;;;;;4983406;28;20047;-69
2022/03/07 07:22:06;;;;;;;11.05;4.45;;;5.00;99.90;;;;;;4956282;28;20133;-67
2022/03/07 07:24:33;;;;;;;11.90;3.65;;;5.00;99.90;;;;;;4969115;28;20492;-67
2022/03/07 07:27:00;;;;;;;9.23;2.58;;;5.00;99.90;;;;;;4952279;28;20058;-68
2022/03/07 07:29:27;;;;;;;11.35;2.95;;;5.00;99.90;;;;;;4953747;28;20126;-68
2022/03/07 07:31:54;;;;;;;7.43;2.30;;;5.00;99.90;;;;;;4970773;28;20074;-67
2022/03/07 07:34:21;;;;;;;10.82;2.22;;;5.00;99.90;;;;;;4965914;28;20059;-67
2022/03/07 07:36:48;;;;;;;12.23;3.20;;;5.00;99.90;;;;;;4963734;28;20055;-68
2022/03/07 07:39:16;;;;;;;13.25;3.15;;;5.10;99.90;;;;;;4949767;29;20126;-70
2022/03/07 07:41:43;;;;;;;10.57;2.70;;;5.10;99.90;;;;;;4964173;28;20071;-71
2022/03/07 07:44:10;;;;;;;8.73;2.65;;;5.20;99.90;;;;;;4951254;28;20149;-72
2022/03/07 07:46:39;;;;;;;8.35;3.33;;;5.20;99.90;;;;;;4963659;28;20294;-74
2022/03/07 07:49:06;;;;;;;10.35;3.38;;;5.20;99.90;;;;;;4955347;28;20054;-70
2022/03/07 07:51:33;;;;;;;10.63;6.05;;;5.30;99.90;;;;;;4949527;28;20514;-73
2022/03/07 07:54:00;;;;;;;11.52;3.22;;;5.30;99.90;;;;;;4950828;28;20130;-71
2022/03/07 07:56:31;;;;;;;9.57;2.90;;;5.30;99.90;;;;;;4968624;28;20248;-71
2022/03/07 07:58:58;;;;;;;8.85;2.65;;;5.30;99.90;;;;;;4965197;28;20130;-71
2022/03/07 08:01:29;;;;;;;13.27;3.22;;;5.30;99.90;;;;;;4962124;28;20046;-71
2022/03/07 08:03:57;;;;;;;13.80;4.45;;;5.40;99.90;;;;;;4951682;28;20058;-71
2022/03/07 08:06:26;;;;;;;16.77;3.38;;;5.40;99.90;;;;;;4949205;28;20062;-71
2022/03/07 08:08:53;;;;;;;8.02;3.53;;;5.40;99.90;;;;;;4949574;28;20039;-69
2022/03/07 08:11:22;;;;;;;12.02;2.75;;;5.40;99.90;;;;;;4938088;28;20409;-72
2022/03/07 08:13:49;;;;;;;8.38;3.20;;;5.40;99.90;;;;;;4957401;28;20154;-72
2022/03/07 08:16:18;;;;;;;7.65;2.58;;;5.50;99.90;;;;;;4937957;29;20134;-73
2022/03/07 08:18:45;;;;;;;13.93;3.57;;;5.50;99.90;;;;;;4946771;28;20056;-71
2022/03/07 08:21:12;;;;;;;15.48;4.25;;;5.50;99.90;;;;;;4966321;28;20095;-74
2022/03/07 08:23:39;;;;;;;11.95;2.97;;;5.50;99.90;;;;;;4987465;28;20055;-71
2022/03/07 08:26:09;;;;;;;11.65;3.58;;;5.50;99.90;;;;;;4949907;29;20498;-72
2022/03/07 08:28:36;;;;;;;;;;;5.50;99.90;;;;;;4934890;29;20062;-71
2022/03/07 08:31:08;;;;;;;8.25;3.33;;;5.60;99.90;;;;;;4950101;29;19933;-71
2022/03/07 08:33:38;;;;;;;9.48;3.40;;;5.60;99.90;;;;;;4952499;28;20101;-71
2022/03/07 08:36:06;;;;;;;8.98;3.75;;;5.60;99.90;;;;;;4978079;28;20054;-71
2022/03/07 08:38:37;;;;;;;10.27;4.63;;;5.60;99.90;;;;;;5000974;28;20070;-73
2022/03/07 08:41:04;;;;;;;108.88;71.30;;;5.60;99.90;;;;;;4972867;28;20054;-75
2022/03/07 08:43:31;;;;;;;285.15;189.88;;;5.80;99.90;;;;;;4952257;28;20043;-70
2022/03/07 08:45:58;;;;;;;33.78;18.95;;;5.80;99.90;;;;;;4954483;28;20154;-72
2022/03/07 08:48:25;;;;;;;20.83;9.18;;;5.90;99.90;;;;;;4932022;29;20139;-72
2022/03/07 08:50:53;;;;;;;15.80;5.82;;;5.90;99.90;;;;;;4950063;29;20125;-75
2022/03/07 08:53:20;;;;;;;9.02;4.63;;;5.90;99.90;;;;;;4950913;28;20051;-71
2022/03/07 08:55:47;;;;;;;12.48;6.22;;;5.80;99.90;;;;;;4970799;28;20043;-73
2022/03/07 08:58:33;;;;;;;15.23;4.85;;;5.90;99.90;;;;;;4973453;28;20063;-74
2022/03/07 09:01:07;;;;;;;10.25;3.83;;;5.90;99.90;;;;;;4964517;28;20083;-74
2022/03/07 09:03:50;;;;;;;7.32;3.42;;;6.00;99.90;;;;;;4942967;29;20056;-74
2022/03/07 09:06:26;;;;;;;9.43;2.80;;;5.90;99.90;;;;;;4980521;28;20055;-72
2022/03/07 09:08:54;;;;;;;8.25;3.63;;;5.90;99.90;;;;;;4980336;28;20142;-72
2022/03/07 09:11:40;;;;;;;9.75;3.13;;;5.90;99.90;;;;;;4975654;28;20067;-70
2022/03/07 09:14:07;;;;;;;8.50;3.53;;;5.90;99.90;;;;;;4932962;29;20051;-76
2022/03/07 09:16:35;;;;;;;8.98;4.72;;;6.00;99.90;;;;;;4949576;28;20106;-70
2022/03/07 09:19:03;;;;;;;100.95;68.70;;;6.00;99.50;;;;;;4933597;29;20407;-70
2022/03/07 09:21:30;;;;;;;30.95;21.08;;;6.10;98.20;;;;;;4951294;28;20051;-71
2022/03/07 09:23:57;;;;;;;10.52;6.53;;;6.10;96.80;;;;;;4936235;29;20051;-66
2022/03/07 09:26:24;;;;;;;7.78;5.03;;;6.10;95.80;;;;;;4954012;28;20054;-65
2022/03/07 09:28:51;;;;;;;11.73;6.00;;;6.20;95.90;;;;;;4995099;28;20130;-66
2022/03/07 09:31:18;;;;;;;7.00;3.90;;;6.20;94.40;;;;;;4951370;29;20066;-69
2022/03/07 09:33:46;;;;;;;7.38;4.80;;;6.30;94.00;;;;;;4953966;28;20059;-65
2022/03/07 09:36:13;;;;;;;9.13;4.65;;;6.30;93.50;;;;;;4973611;28;20051;-67
2022/03/07 09:38:40;;;;;;;7.05;4.25;;;6.20;93.00;;;;;;4986141;28;20077;-66
2022/03/07 09:41:07;;;;;;;10.18;5.20;;;6.30;93.90;;;;;;4984755;28;20051;-67
2022/03/07 09:43:35;;;;;;;8.70;4.45;;;6.30;93.30;;;;;;4954098;29;20050;-67
2022/03/07 09:46:02;;;;;;;8.35;5.28;;;6.40;93.00;;;;;;4949727;28;20054;-66
2022/03/07 09:48:29;;;;;;;9.38;6.15;;;6.40;92.70;;;;;;4964386;28;20089;-66
2022/03/07 09:50:56;;;;;;;4.82;3.92;;;6.50;92.20;;;;;;4958222;28;20129;-66
2022/03/07 09:53:29;;;;;;;8.52;4.57;;;6.60;92.00;;;;;;4953216;28;20393;-67
2022/03/07 09:55:57;;;;;;;7.43;3.40;;;6.70;92.50;;;;;;4984412;28;20058;-66
2022/03/07 09:58:26;;;;;;;7.15;3.97;;;6.70;90.40;;;;;;4954838;28;20079;-67
2022/03/07 10:01:03;;;;;;;6.03;3.75;;;6.70;90.10;;;;;;4985348;28;20054;-66
2022/03/07 10:03:31;;;;;;;7.38;4.35;;;6.70;88.90;;;;;;4952344;29;20055;-68
2022/03/07 10:05:58;;;;;;;6.32;4.53;;;6.80;89.30;;;;;;4970104;28;20079;-68
2022/03/07 10:08:28;;;;;;;8.07;3.92;;;6.80;89.40;;;;;;4953936;29;20113;-67
2022/03/07 10:10:56;;;;;;;4.45;4.05;;;6.70;87.20;;;;;;4953725;29;20081;-67
2022/03/07 10:13:24;;;;;;;12.38;4.97;;;6.70;87.20;;;;;;4985491;28;20047;-65
2022/03/07 10:15:57;;;;;;;9.05;5.00;;;6.70;87.20;;;;;;4986282;28;20051;-67
2022/03/07 10:18:25;;;;;;;11.00;5.82;;;6.70;85.70;;;;;;4966674;28;20058;-66
2022/03/07 10:21:03;;;;;;;6.43;4.20;;;6.60;84.60;;;;;;4967181;28;20059;-67
2022/03/07 10:23:32;;;;;;;6.43;4.70;;;6.50;85.00;;;;;;4957739;28;20097;-66
2022/03/07 10:26:07;;;;;;;8.73;4.78;;;6.50;86.40;;;;;;4961659;28;20050;-66
2022/03/07 10:28:41;;;;;;;8.77;5.28;;;6.40;85.10;;;;;;4961476;28;20051;-67
2022/03/07 10:31:15;;;;;;;9.98;4.97;;;6.50;86.30;;;;;;4953925;28;20047;-64
2022/03/07 10:33:43;;;;;;;23.13;14.90;;;6.40;85.80;;;;;;4977008;28;20455;-64
2022/03/07 10:36:10;;;;;;;8.25;6.18;;;6.30;84.10;;;;;;4955405;28;20510;-63
2022/03/07 10:38:37;;;;;;;9.75;4.53;;;6.30;84.60;;;;;;4953831;28;20463;-65
2022/03/07 10:41:04;;;;;;;8.00;3.90;;;6.30;83.40;;;;;;4970049;28;20106;-64
2022/03/07 10:43:31;;;;;;;9.48;4.00;;;6.20;82.00;;;;;;4959974;28;20093;-65
2022/03/07 10:46:00;;;;;;;8.43;4.63;;;6.20;82.50;;;;;;4942672;28;20133;-66
2022/03/07 10:48:29;;;;;;;5.72;4.55;;;6.30;82.60;;;;;;4963188;28;20075;-65
2022/03/07 10:50:57;;;;;;;7.70;5.13;;;6.40;81.60;;;;;;4968688;28;20563;-66
2022/03/07 10:53:25;;;;;;;8.77;4.60;;;6.40;81.40;;;;;;4985389;28;20483;-65
2022/03/07 10:55:53;;;;;;;7.65;4.95;;;6.30;81.00;;;;;;4970020;28;20047;-65
2022/03/07 10:58:22;;;;;;;6.70;4.50;;;6.30;80.40;;;;;;4954543;28;20384;-64
2022/03/07 11:00:59;;;;;;;5.63;4.13;;;6.20;80.30;;;;;;4969714;28;20074;-65
2022/03/07 11:03:33;;;;;;;5.30;4.45;;;6.30;82.20;;;;;;4985262;28;20051;-63
2022/03/07 11:06:01;;;;;;;6.18;4.75;;;6.40;80.90;;;;;;4952992;28;20122;-65
2022/03/07 11:08:28;;;;;;;7.85;4.40;;;6.50;80.30;;;;;;4932665;29;20050;-66
2022/03/07 11:10:57;;;;;;;7.20;5.55;;;6.60;80.90;;;;;;4953158;29;20373;-67
2022/03/07 11:13:29;;;;;;;5.15;4.43;;;6.60;79.60;;;;;;4954429;28;20597;-66
2022/03/07 11:16:00;;;;;;;7.28;5.28;;;6.50;80.30;;;;;;4986491;28;20436;-66
2022/03/07 11:18:28;;;;;;;5.65;4.82;;;6.40;80.30;;;;;;4995571;28;20047;-67
2022/03/07 11:20:56;;;;;;;17.77;10.07;;;6.50;81.00;;;;;;4984002;28;20737;-66
2022/03/07 11:23:23;;;;;;;20.08;13.05;;;6.40;80.40;;;;;;4968350;28;20078;-66
2022/03/07 11:25:51;;;;;;;7.40;4.97;;;6.40;79.60;;;;;;4924507;28;20101;-67
2022/03/07 11:28:40;;;;;;;9.18;5.80;;;6.40;81.00;;;;;;4986060;28;20081;-66
2022/03/07 11:31:27;;;;;;;7.53;4.77;;;6.40;79.60;;;;;;4964849;28;20075;-64
2022/03/07 11:33:54;;;;;;;5.65;4.85;;;6.30;79.90;;;;;;4937679;28;20082;-73
2022/03/07 11:36:23;;;;;;;8.48;4.57;;;6.40;80.60;;;;;;4952573;28;20043;-78
2022/03/07 11:39:01;;;;;;;6.50;5.05;;;6.40;80.10;;;;;;4949271;28;20490;-75
2022/03/07 11:41:32;;;;;;;7.03;4.95;;;6.50;79.80;;;;;;4959115;28;20043;-74
2022/03/07 11:44:01;;;;;;;8.10;5.35;;;6.50;79.90;;;;;;4954642;28;20075;-68
2022/03/07 11:46:30;;;;;;;6.95;5.20;;;6.50;79.90;;;;;;4961031;28;20066;-74
2022/03/07 11:48:57;;;;;;;7.68;5.60;;;6.60;79.80;;;;;;4952503;28;20054;-72
2022/03/07 11:51:26;;;;;;;6.72;5.65;;;6.60;78.50;;;;;;4950137;28;20044;-71
2022/03/07 11:53:54;;;;;;;7.63;5.95;;;6.60;79.10;;;;;;4954182;28;20085;-72
2022/03/07 11:56:24;;;;;;;10.15;6.43;;;6.60;80.80;;;;;;4959729;28;20059;-74
2022/03/07 11:58:53;;;;;;;12.43;6.18;;;6.70;79.80;;;;;;4949987;28;20069;-73
2022/03/07 12:01:27;;;;;;;7.03;5.90;;;6.80;79.20;;;;;;4934800;28;20043;-65
2022/03/07 12:03:55;;;;;;;8.50;6.75;;;6.70;80.00;;;;;;4963959;28;20130;-66
2022/03/07 12:06:26;;;;;;;7.90;7.00;;;6.70;79.00;;;;;;4953560;28;20375;-66
2022/03/07 12:08:57;;;;;;;9.55;7.40;;;6.60;78.60;;;;;;4933354;29;20459;-67
2022/03/07 12:11:34;;;;;;;11.88;8.38;;;6.70;78.40;;;;;;4952614;28;20051;-69
2022/03/07 12:14:03;;;;;;;9.75;7.55;;;6.60;78.30;;;;;;4939133;28;20078;-68
2022/03/07 12:16:34;;;;;;;10.77;7.37;;;6.70;79.60;;;;;;4959554;28;20073;-69
2022/03/07 12:19:16;;;;;;;9.27;7.38;;;6.80;79.30;;;;;;4952749;28;20055;-66
2022/03/07 12:21:44;;;;;;;11.95;7.55;;;6.80;78.30;;;;;;4952927;28;20146;-67
2022/03/07 12:24:12;;;;;;;11.73;8.27;;;6.70;77.40;;;;;;4948630;29;20551;-66
2022/03/07 12:26:58;;;;;;;9.88;7.85;;;6.70;77.60;;;;;;4976772;28;20153;-67
2022/03/07 12:29:26;;;;;;;8.77;7.20;;;6.80;78.50;;;;;;4983202;28;20508;-67
2022/03/07 12:31:57;;;;;;;10.18;9.10;;;6.80;77.30;;;;;;4967317;28;20488;-65
2022/03/07 12:34:26;;;;;;;11.98;9.82;;;6.60;76.70;;;;;;4967166;28;20053;-66
2022/03/07 12:37:04;;;;;;;10.82;9.32;;;6.60;77.90;;;;;;4951741;29;20047;-66
2022/03/07 12:39:45;;;;;;;12.68;10.73;;;6.50;77.70;;;;;;4981326;28;20098;-67
2022/03/07 12:42:12;;;;;;;12.98;11.68;;;6.50;78.40;;;;;;4950303;29;20040;-67
2022/03/07 12:44:40;;;;;;;17.08;11.40;;;6.50;78.70;;;;;;4956834;28;20047;-67
2022/03/07 12:47:07;;;;;;;14.20;10.88;;;6.60;78.60;;;;;;4959461;28;20403;-67
2022/03/07 12:49:34;;;;;;;65.30;43.15;;;6.60;78.50;;;;;;4955059;28;20404;-68
2022/03/07 12:52:04;;;;;;;18.55;13.65;;;6.60;78.10;;;;;;4952465;28;20429;-70
2022/03/07 12:54:37;;;;;;;16.92;11.43;;;6.60;77.30;;;;;;4971481;28;20491;-69
2022/03/07 12:57:04;;;;;;;14.60;11.20;;;6.60;76.30;;;;;;4946168;29;20071;-69
2022/03/07 12:59:33;;;;;;;13.05;10.90;;;6.60;76.10;;;;;;4973120;28;20059;-68